CheckWX is a tool to help pilots better visualize weather data.  It is not intended as a substitute for an official pre-flight weather briefing.

06:04:26 UTC

SCTE TAF
El Tepual Airport
Puerto Montt, Chile
TAF SCTE 260435Z 2606/2706 36007KT 9999 SCT020 BKN030 TN07/2608Z TX11/2618Z TEMPO 2606/2616 30012KT 6000 SHRA BKN015 OVC025 BECMG 2617/2619 BKN025

Jun-26@
06:00 UTC

Jun-26 @ 06:00 UTC

Jun-26@
17:00 UTC

Jun-26 @ 17:00 UTC

TAF SCTE 260435Z 2606/2706 36007KT 9999 SCT020 BKN030 TN07/2608Z TX11/2618Z
Wind
  • 360° at 7 KTS
Cloud Levels
  • Scattered at 2,000' AGL
  • Broken at 3,000' AGL

Jun-26@
06:00 UTC

Jun-26 @ 06:00 UTC

Jun-26@
16:00 UTC

Jun-26 @ 16:00 UTC

TEMPO 2606/2616 30012KT 6000 SHRA BKN015 OVC025

Temporary

Temporary Changes expected for less than half the time period

Wind
  • 300° at 12 KTS
Conditions
Rain
Cloud Levels
  • Broken at 1,500' AGL
  • Overcast at 2,500' AGL

Jun-26@
17:00 UTC

Jun-26 @ 17:00 UTC

Jun-27@
06:00 UTC

Jun-27 @ 06:00 UTC

BECMG 2617/2619 BKN025

Becoming

Becoming Conditions expected by Wed, Jun 26, 2019 @ 19:00 UTC

Wind
  • 360° at 7 KTS
Cloud Levels
  • Broken at 2,500' AGL